Time;durP1;ratioP1;P1;durP2;ratioP2;P2;SDS_P1;SDS_P2;PMS_P1;PMS_P2;Temp;Humidity;BMP_temperature;BMP_pressure;BME280_temperature;BME280_humidity;BME280_pressure;Samples;Min_cycle;Max_cycle;Signal;HPM_P1;HPM_P2
2019/04/07 00:00:04;;;;;;;6.3;5.4;;;;;;;7.67;68.46191;93744.81;;;;
2019/04/07 00:01:10;;;;;;;6.3;5.4;;;;;;;7.67;68.46191;93744.81;;;;
2019/04/07 00:02:11;;;;;;;6.3;5.4;;;;;;;7.67;68.46191;93744.81;;;;
2019/04/07 00:03:12;;;;;;;6.3;5.4;;;;;;;7.67;68.46191;93744.81;;;;
2019/04/07 00:04:13;;;;;;;6.3;5.4;;;;;;;7.67;68.46191;93744.81;;;;
2019/04/07 00:05:15;;;;;;;6.3;5.4;;;;;;;7.67;68.46191;93744.81;;;;
2019/04/07 00:06:16;;;;;;;7.6;5.45;;;;;;;7.14;69.86719;93735.03;;;;
2019/04/07 00:07:17;;;;;;;7.6;5.45;;;;;;;7.14;69.86719;93735.03;;;;
2019/04/07 00:08:18;;;;;;;7.6;5.45;;;;;;;7.14;69.86719;93735.03;;;;
2019/04/07 00:09:19;;;;;;;7.6;5.45;;;;;;;7.14;69.86719;93735.03;;;;
2019/04/07 00:10:21;;;;;;;7.6;5.45;;;;;;;7.14;69.86719;93735.03;;;;
2019/04/07 00:11:22;;;;;;;7.6;5.45;;;;;;;7.14;69.86719;93735.03;;;;
2019/04/07 00:12:23;;;;;;;7.6;5.45;;;;;;;7.14;69.86719;93735.03;;;;
2019/04/07 00:13:24;;;;;;;7.6;5.45;;;;;;;7.14;69.86719;93735.03;;;;
2019/04/07 00:14:25;;;;;;;5.199999;4.699999;;;;;;;6.97;70.48828;93738.73;;;;
2019/04/07 00:15:27;;;;;;;5.199999;4.699999;;;;;;;6.97;70.48828;93738.73;;;;
2019/04/07 00:16:28;;;;;;;5.199999;4.699999;;;;;;;6.97;70.48828;93738.73;;;;
2019/04/07 00:17:29;;;;;;;5.199999;4.699999;;;;;;;6.97;70.48828;93738.73;;;;
2019/04/07 00:18:30;;;;;;;5.199999;4.699999;;;;;;;6.97;70.48828;93738.73;;;;
2019/04/07 00:19:31;;;;;;;5.199999;4.699999;;;;;;;6.97;70.48828;93738.73;;;;
2019/04/07 00:20:33;;;;;;;5.199999;4.699999;;;;;;;6.97;70.48828;93738.73;;;;
2019/04/07 00:21:34;;;;;;;5.199999;4.699999;;;;;;;6.97;70.48828;93738.73;;;;
2019/04/07 00:22:35;;;;;;;5.199999;4.699999;;;;;;;6.97;70.48828;93738.73;;;;
2019/04/07 00:23:36;;;;;;;5.199999;4.699999;;;;;;;6.97;70.48828;93738.73;;;;
2019/04/07 00:24:37;;;;;;;5.199999;4.699999;;;;;;;6.97;70.48828;93738.73;;;;
2019/04/07 00:25:38;;;;;;;5.199999;4.699999;;;;;;;6.97;70.48828;93738.73;;;;
2019/04/07 00:26:40;;;;;;;5.199999;4.699999;;;;;;;6.97;70.48828;93738.73;;;;
2019/04/07 00:27:41;;;;;;;5.199999;4.699999;;;;;;;6.97;70.48828;93738.73;;;;
2019/04/07 00:28:42;;;;;;;5.199999;4.699999;;;;;;;6.97;70.48828;93738.73;;;;
2019/04/07 00:29:43;;;;;;;5.199999;4.699999;;;;;;;6.97;70.48828;93738.73;;;;
2019/04/07 00:30:44;;;;;;;5.749999;4.8;;;;;;;6.7;71.92969;93728.89;;;;
2019/04/07 00:31:45;;;;;;;5.749999;4.8;;;;;;;6.7;71.92969;93728.89;;;;
2019/04/07 00:32:47;;;;;;;5.25;4.75;;;;;;;6.66;71.87012;93730.03;;;;
2019/04/07 00:33:48;;;;;;;5.25;4.75;;;;;;;6.66;71.87012;93730.03;;;;
2019/04/07 00:34:49;;;;;;;5.25;4.75;;;;;;;6.66;71.87012;93730.03;;;;
2019/04/07 00:35:50;;;;;;;5.5;4.900001;;;;;;;6.59;71.99609;93728.08;;;;
2019/04/07 00:36:51;;;;;;;5.5;4.900001;;;;;;;6.59;71.99609;93728.08;;;;
2019/04/07 00:37:52;;;;;;;5.5;4.900001;;;;;;;6.59;71.99609;93728.08;;;;
2019/04/07 00:38:54;;;;;;;5.5;4.900001;;;;;;;6.59;71.99609;93728.08;;;;
2019/04/07 00:39:55;;;;;;;5.5;4.900001;;;;;;;6.59;71.99609;93728.08;;;;
2019/04/07 00:40:56;;;;;;;5.5;4.900001;;;;;;;6.59;71.99609;93728.08;;;;
2019/04/07 00:41:57;;;;;;;5.5;4.900001;;;;;;;6.59;71.99609;93728.08;;;;
2019/04/07 00:42:58;;;;;;;5.5;4.900001;;;;;;;6.59;71.99609;93728.08;;;;
2019/04/07 00:43:59;;;;;;;5.2;4.7;;;;;;;6.44;72.45996;93729.1;;;;
2019/04/07 00:45:01;;;;;;;5.2;4.7;;;;;;;6.44;72.45996;93729.1;;;;
2019/04/07 00:46:03;;;;;;;5.2;4.7;;;;;;;6.44;72.45996;93729.1;;;;
2019/04/07 00:47:04;;;;;;;5.2;4.7;;;;;;;6.44;72.45996;93729.1;;;;
2019/04/07 00:48:05;;;;;;;5.2;4.7;;;;;;;6.44;72.45996;93729.1;;;;
2019/04/07 00:49:06;;;;;;;5.2;4.7;;;;;;;6.44;72.45996;93729.1;;;;
2019/04/07 00:50:07;;;;;;;5.2;4.7;;;;;;;6.44;72.45996;93729.1;;;;
2019/04/07 00:51:08;;;;;;;5.2;4.7;;;;;;;6.44;72.45996;93729.1;;;;
2019/04/07 00:52:10;;;;;;;7.199999;5.2;;;;;;;6.31;72.98926;93734.44;;;;
2019/04/07 00:53:11;;;;;;;7.199999;5.2;;;;;;;6.31;72.98926;93734.44;;;;
2019/04/07 00:54:13;;;;;;;7.199999;5.2;;;;;;;6.31;72.98926;93734.44;;;;
2019/04/07 00:55:14;;;;;;;7.199999;5.2;;;;;;;6.31;72.98926;93734.44;;;;
2019/04/07 00:56:15;;;;;;;7.199999;5.2;;;;;;;6.31;72.98926;93734.44;;;;
2019/04/07 00:57:16;;;;;;;7.199999;5.2;;;;;;;6.31;72.98926;93734.44;;;;
2019/04/07 00:58:17;;;;;;;7.199999;5.2;;;;;;;6.31;72.98926;93734.44;;;;
2019/04/07 00:59:18;;;;;;;6.4;5.15;;;;;;;6.18;73.41211;93734.38;;;;
2019/04/07 01:00:21;;;;;;;6.4;5.15;;;;;;;6.18;73.41211;93734.38;;;;
2019/04/07 01:01:22;;;;;;;6.4;5.15;;;;;;;6.18;73.41211;93734.38;;;;
2019/04/07 01:02:23;;;;;;;6.4;5.15;;;;;;;6.18;73.41211;93734.38;;;;
2019/04/07 01:03:25;;;;;;;6.4;5.15;;;;;;;6.18;73.41211;93734.38;;;;
2019/04/07 01:04:26;;;;;;;6.349999;5.45;;;;;;;6.08;73.69238;93731.02;;;;
2019/04/07 01:05:27;;;;;;;6.349999;5.45;;;;;;;6.08;73.69238;93731.02;;;;
2019/04/07 01:06:28;;;;;;;6.349999;5.45;;;;;;;6.08;73.69238;93731.02;;;;
2019/04/07 01:07:29;;;;;;;5.55;4.85;;;;;;;6.03;73.87402;93726.92;;;;
2019/04/07 01:08:31;;;;;;;5.55;4.85;;;;;;;6.03;73.87402;93726.92;;;;
2019/04/07 01:09:32;;;;;;;5.55;4.85;;;;;;;6.03;73.87402;93726.92;;;;
2019/04/07 01:10:33;;;;;;;5.55;4.85;;;;;;;6.03;73.87402;93726.92;;;;
2019/04/07 01:11:34;;;;;;;5.55;4.85;;;;;;;6.03;73.87402;93726.92;;;;
2019/04/07 01:12:36;;;;;;;6.4;5;;;;;;;5.95;74.14648;93734.06;;;;
2019/04/07 01:13:37;;;;;;;6.4;5;;;;;;;5.95;74.14648;93734.06;;;;
2019/04/07 01:14:38;;;;;;;6.4;5;;;;;;;5.95;74.14648;93734.06;;;;
2019/04/07 01:15:39;;;;;;;6.4;5;;;;;;;5.95;74.14648;93734.06;;;;
2019/04/07 01:16:40;;;;;;;6.4;5;;;;;;;5.95;74.14648;93734.06;;;;
2019/04/07 01:17:42;;;;;;;6.4;5;;;;;;;5.95;74.14648;93734.06;;;;
2019/04/07 01:18:43;;;;;;;6.4;5;;;;;;;5.95;74.14648;93734.06;;;;
2019/04/07 01:19:44;;;;;;;6.4;5;;;;;;;5.95;74.14648;93734.06;;;;
2019/04/07 01:20:45;;;;;;;8.5;7.6;;;;;;;5.87;74.6084;93731.78;;;;
2019/04/07 01:21:47;;;;;;;8.5;7.6;;;;;;;5.87;74.6084;93731.78;;;;
2019/04/07 01:22:48;;;;;;;8.5;7.6;;;;;;;5.87;74.6084;93731.78;;;;
2019/04/07 01:23:49;;;;;;;8.5;7.6;;;;;;;5.87;74.6084;93731.78;;;;
2019/04/07 01:24:50;;;;;;;8.5;7.6;;;;;;;5.87;74.6084;93731.78;;;;
2019/04/07 01:25:51;;;;;;;8.5;7.6;;;;;;;5.87;74.6084;93731.78;;;;
2019/04/07 01:26:53;;;;;;;8.5;7.6;;;;;;;5.87;74.6084;93731.78;;;;
2019/04/07 01:27:54;;;;;;;8.5;7.6;;;;;;;5.87;74.6084;93731.78;;;;
2019/04/07 01:28:55;;;;;;;8.450001;7.15;;;;;;;5.8;75.04102;93734.61;;;;
2019/04/07 01:29:57;;;;;;;8.450001;7.15;;;;;;;5.8;75.04102;93734.61;;;;
2019/04/07 01:30:58;;;;;;;8.450001;7.15;;;;;;;5.8;75.04102;93734.61;;;;
2019/04/07 01:31:59;;;;;;;8.450001;7.15;;;;;;;5.8;75.04102;93734.61;;;;
2019/04/07 01:33:00;;;;;;;8.450001;7.15;;;;;;;5.8;75.04102;93734.61;;;;
2019/04/07 01:34:02;;;;;;;7.800001;6.249999;;;;;;;5.76;75.14063;93737.06;;;;
2019/04/07 01:35:03;;;;;;;7.800001;6.249999;;;;;;;5.76;75.14063;93737.06;;;;
2019/04/07 01:36:05;;;;;;;7.800001;6.249999;;;;;;;5.76;75.14063;93737.06;;;;
2019/04/07 01:37:06;;;;;;;7.800001;6.249999;;;;;;;5.76;75.14063;93737.06;;;;
2019/04/07 01:38:07;;;;;;;7.800001;6.249999;;;;;;;5.76;75.14063;93737.06;;;;
2019/04/07 01:39:09;;;;;;;7.800001;6.249999;;;;;;;5.76;75.14063;93737.06;;;;
2019/04/07 01:40:11;;;;;;;7.800001;6.249999;;;;;;;5.76;75.14063;93737.06;;;;
2019/04/07 01:41:20;;;;;;;7.800001;6.249999;;;;;;;5.76;75.14063;93737.06;;;;
2019/04/07 01:42:27;;;;;;;7.800001;6.249999;;;;;;;5.76;75.14063;93737.06;;;;
2019/04/07 01:43:36;;;;;;;7.800001;6.249999;;;;;;;5.76;75.14063;93737.06;;;;
2019/04/07 01:45:06;;;;;;;7.800001;6.249999;;;;;;;5.76;75.14063;93737.06;;;;
2019/04/07 01:46:14;;;;;;;7.800001;6.249999;;;;;;;5.76;75.14063;93737.06;;;;
2019/04/07 01:47:21;;;;;;;6.95;6.25;;;;;;;5.64;75.6377;93737.28;;;;
2019/04/07 01:48:32;;;;;;;6.95;6.25;;;;;;;5.64;75.6377;93737.28;;;;
2019/04/07 01:50:16;;;;;;;6.95;6.25;;;;;;;5.64;75.6377;93737.28;;;;
2019/04/07 01:51:28;;;;;;;6.95;6.25;;;;;;;5.64;75.6377;93737.28;;;;
2019/04/07 01:52:37;;;;;;;6.95;6.25;;;;;;;5.64;75.6377;93737.28;;;;
2019/04/07 01:54:12;;;;;;;6.95;6.25;;;;;;;5.64;75.6377;93737.28;;;;
2019/04/07 01:55:21;;;;;;;6.95;6.25;;;;;;;5.64;75.6377;93737.28;;;;
2019/04/07 01:56:32;;;;;;;6.95;6.25;;;;;;;5.64;75.6377;93737.28;;;;
2019/04/07 01:57:44;;;;;;;6.95;6.25;;;;;;;5.64;75.6377;93737.28;;;;
2019/04/07 01:58:54;;;;;;;6.95;6.25;;;;;;;5.64;75.6377;93737.28;;;;
2019/04/07 02:05:11;;;;;;;6.6;5.95;;;;;;;5.13;75.89648;93745.89;;;;
2019/04/07 02:06:19;;;;;;;6.4;5.8;;;;;;;5.18;76.06348;93744.26;;;;
2019/04/07 02:07:28;;;;;;;6.4;5.8;;;;;;;5.18;76.06348;93744.26;;;;
2019/04/07 02:08:36;;;;;;;6.4;5.8;;;;;;;5.18;76.06348;93744.26;;;;
2019/04/07 02:10:12;;;;;;;6.7;6.1;;;;;;;5.18;76.09668;93744.12;;;;
2019/04/07 02:11:21;;;;;;;6.7;6.1;;;;;;;5.18;76.09668;93744.12;;;;
2019/04/07 02:18:18;;;;;;;6.7;6.1;;;;;;;5.18;76.09668;93744.12;;;;
2019/04/07 02:29:16;;;;;;;7.499999;6.05;;;;;;;4.83;76.05273;93746.26;;;;
2019/04/07 02:30:43;;;;;;;7.499999;6.05;;;;;;;4.83;76.05273;93746.26;;;;
2019/04/07 02:31:52;;;;;;;7.499999;6.05;;;;;;;4.83;76.05273;93746.26;;;;
2019/04/07 02:33:01;;;;;;;7.499999;6.05;;;;;;;4.83;76.05273;93746.26;;;;
2019/04/07 02:34:09;;;;;;;7.499999;6.05;;;;;;;4.83;76.05273;93746.26;;;;
2019/04/07 02:35:21;;;;;;;7.499999;6.05;;;;;;;4.83;76.05273;93746.26;;;;
2019/04/07 02:36:32;;;;;;;7.650001;5.849999;;;;;;;4.54;75.70801;93738.75;;;;
2019/04/07 02:37:42;;;;;;;7.650001;5.849999;;;;;;;4.54;75.70801;93738.75;;;;
2019/04/07 02:38:50;;;;;;;7.650001;5.849999;;;;;;;4.54;75.70801;93738.75;;;;
2019/04/07 02:39:59;;;;;;;7.650001;5.849999;;;;;;;4.54;75.70801;93738.75;;;;
2019/04/07 02:41:09;;;;;;;6.250001;5.65;;;;;;;4.63;76.34668;93737.32;;;;
2019/04/07 02:42:18;;;;;;;6.250001;5.65;;;;;;;4.63;76.34668;93737.32;;;;
2019/04/07 02:48:04;;;;;;;6.250001;5.65;;;;;;;4.63;76.34668;93737.32;;;;
2019/04/07 02:49:19;;;;;;;6.250001;5.65;;;;;;;4.63;76.34668;93737.32;;;;
2019/04/07 02:50:26;;;;;;;6.250001;5.65;;;;;;;4.63;76.34668;93737.32;;;;
2019/04/07 02:51:50;;;;;;;6.250001;5.65;;;;;;;4.63;76.34668;93737.32;;;;
2019/04/07 02:53:02;;;;;;;6.250001;5.65;;;;;;;4.63;76.34668;93737.32;;;;
2019/04/07 02:55:18;;;;;;;6.250001;5.65;;;;;;;4.63;76.34668;93737.32;;;;
2019/04/07 02:57:26;;;;;;;6.250001;5.65;;;;;;;4.63;76.34668;93737.32;;;;
2019/04/07 02:58:34;;;;;;;5.4;4.9;;;;;;;4.39;75.83984;93756.75;;;;
2019/04/07 03:00:14;;;;;;;5.4;4.9;;;;;;;4.39;75.83984;93756.75;;;;
2019/04/07 03:01:29;;;;;;;6.799999;5.35;;;;;;;4.39;76.5459;93754.49;;;;
2019/04/07 03:07:44;;;;;;;6.95;5.45;;;;;;;4.55;77.3457;93751.86;;;;
2019/04/07 03:08:52;;;;;;;6.95;5.45;;;;;;;4.55;77.3457;93751.86;;;;
2019/04/07 03:15:11;;;;;;;6.95;5.45;;;;;;;4.55;77.3457;93751.86;;;;
2019/04/07 03:16:23;;;;;;;6.299999;5.400001;;;;;;;4.29;76.07617;93755.08;;;;
2019/04/07 03:17:30;;;;;;;6.299999;5.400001;;;;;;;4.29;76.07617;93755.08;;;;
2019/04/07 03:18:42;;;;;;;6.299999;5.400001;;;;;;;4.29;76.07617;93755.08;;;;
2019/04/07 03:19:49;;;;;;;6.299999;5.400001;;;;;;;4.29;76.07617;93755.08;;;;
2019/04/07 03:21:59;;;;;;;6.299999;5.400001;;;;;;;4.29;76.07617;93755.08;;;;
2019/04/07 03:23:16;;;;;;;6.299999;5.400001;;;;;;;4.29;76.07617;93755.08;;;;
2019/04/07 03:24:29;;;;;;;6.299999;5.400001;;;;;;;4.29;76.07617;93755.08;;;;
2019/04/07 03:35:54;;;;;;;6.1;5.5;;;;;;;4.25;76.56445;93764.59;;;;
2019/04/07 03:37:00;;;;;;;6.1;5.5;;;;;;;4.25;76.56445;93764.59;;;;
2019/04/07 03:38:23;;;;;;;6.1;5.5;;;;;;;4.25;76.56445;93764.59;;;;
2019/04/07 03:39:36;;;;;;;6.1;5.5;;;;;;;4.25;76.56445;93764.59;;;;
2019/04/07 03:40:44;;;;;;;6.1;5.5;;;;;;;4.25;76.56445;93764.59;;;;
2019/04/07 03:41:56;;;;;;;6.1;5.5;;;;;;;4.25;76.56445;93764.59;;;;
2019/04/07 03:43:05;;;;;;;6.5;5.8;;;;;;;4.34;75.77832;93769.87;;;;
2019/04/07 03:44:14;;;;;;;6.5;5.8;;;;;;;4.34;75.77832;93769.87;;;;
2019/04/07 03:45:36;;;;;;;6.5;5.8;;;;;;;4.34;75.77832;93769.87;;;;
2019/04/07 03:46:45;;;;;;;6.5;5.8;;;;;;;4.34;75.77832;93769.87;;;;
2019/04/07 03:47:52;;;;;;;6.5;5.8;;;;;;;4.34;75.77832;93769.87;;;;
2019/04/07 03:49:05;;;;;;;6.5;5.8;;;;;;;4.34;75.77832;93769.87;;;;
2019/04/07 03:50:13;;;;;;;6.5;5.8;;;;;;;4.34;75.77832;93769.87;;;;
2019/04/07 03:51:28;;;;;;;6.5;5.8;;;;;;;4.34;75.77832;93769.87;;;;
2019/04/07 03:52:43;;;;;;;6.5;5.8;;;;;;;4.34;75.77832;93769.87;;;;
2019/04/07 03:54:21;;;;;;;6.5;5.8;;;;;;;4.34;75.77832;93769.87;;;;
2019/04/07 03:55:37;;;;;;;6.5;5.8;;;;;;;4.34;75.77832;93769.87;;;;
2019/04/07 03:57:03;;;;;;;6.5;5.8;;;;;;;4.34;75.77832;93769.87;;;;
2019/04/07 03:58:32;;;;;;;6.5;5.8;;;;;;;4.34;75.77832;93769.87;;;;
2019/04/07 03:59:42;;;;;;;6.5;5.8;;;;;;;4.34;75.77832;93769.87;;;;
2019/04/07 04:01:00;;;;;;;6.5;5.8;;;;;;;4.34;75.77832;93769.87;;;;
2019/04/07 04:02:11;;;;;;;6.5;5.8;;;;;;;4.34;75.77832;93769.87;;;;
2019/04/07 04:03:26;;;;;;;6.5;5.8;;;;;;;4.34;75.77832;93769.87;;;;
2019/04/07 04:04:31;;;;;;;6.5;5.8;;;;;;;4.34;75.77832;93769.87;;;;
2019/04/07 04:06:17;;;;;;;6.5;5.8;;;;;;;4.34;75.77832;93769.87;;;;
2019/04/07 04:07:21;;;;;;;6.65;5.950001;;;;;;;4.75;75.39746;93777.67;;;;
2019/04/07 04:09:00;;;;;;;6.65;5.950001;;;;;;;4.75;75.39746;93777.67;;;;
2019/04/07 04:10:15;;;;;;;6.65;5.950001;;;;;;;4.75;75.39746;93777.67;;;;
2019/04/07 04:11:27;;;;;;;6.65;5.950001;;;;;;;4.75;75.39746;93777.67;;;;
2019/04/07 04:12:32;;;;;;;6.65;5.950001;;;;;;;4.75;75.39746;93777.67;;;;
2019/04/07 04:13:55;;;;;;;6.65;5.950001;;;;;;;4.75;75.39746;93777.67;;;;
2019/04/07 04:15:01;;;;;;;6.65;5.950001;;;;;;;4.75;75.39746;93777.67;;;;
2019/04/07 04:16:06;;;;;;;6.65;5.950001;;;;;;;4.75;75.39746;93777.67;;;;
2019/04/07 04:17:07;;;;;;;6.65;5.950001;;;;;;;4.75;75.39746;93777.67;;;;
2019/04/07 04:18:09;;;;;;;6.65;5.950001;;;;;;;4.75;75.39746;93777.67;;;;
2019/04/07 04:19:10;;;;;;;6.65;5.950001;;;;;;;4.75;75.39746;93777.67;;;;
2019/04/07 04:20:11;;;;;;;6.65;5.950001;;;;;;;4.75;75.39746;93777.67;;;;
2019/04/07 04:21:12;;;;;;;6.249999;5.65;;;;;;;4.68;75.40527;93775.76;;;;
2019/04/07 04:22:13;;;;;;;6.249999;5.65;;;;;;;4.68;75.40527;93775.76;;;;
2019/04/07 04:23:15;;;;;;;6.249999;5.65;;;;;;;4.68;75.40527;93775.76;;;;
2019/04/07 04:24:16;;;;;;;6.249999;5.65;;;;;;;4.68;75.40527;93775.76;;;;
2019/04/07 04:25:17;;;;;;;6.249999;5.65;;;;;;;4.68;75.40527;93775.76;;;;
2019/04/07 04:26:18;;;;;;;6.249999;5.65;;;;;;;4.68;75.40527;93775.76;;;;
2019/04/07 04:27:19;;;;;;;6.249999;5.65;;;;;;;4.68;75.40527;93775.76;;;;
2019/04/07 04:28:20;;;;;;;6.249999;5.65;;;;;;;4.68;75.40527;93775.76;;;;
2019/04/07 04:29:22;;;;;;;6.249999;5.65;;;;;;;4.68;75.40527;93775.76;;;;
2019/04/07 04:30:23;;;;;;;6.249999;5.65;;;;;;;4.68;75.40527;93775.76;;;;
2019/04/07 04:31:24;;;;;;;6.249999;5.65;;;;;;;4.68;75.40527;93775.76;;;;
2019/04/07 04:32:25;;;;;;;6.249999;5.65;;;;;;;4.68;75.40527;93775.76;;;;
2019/04/07 04:33:26;;;;;;;6.249999;5.65;;;;;;;4.68;75.40527;93775.76;;;;
2019/04/07 04:34:28;;;;;;;6.249999;5.65;;;;;;;4.68;75.40527;93775.76;;;;
2019/04/07 04:35:29;;;;;;;6.249999;5.65;;;;;;;4.68;75.40527;93775.76;;;;
2019/04/07 04:36:30;;;;;;;6.249999;5.65;;;;;;;4.68;75.40527;93775.76;;;;
2019/04/07 04:37:31;;;;;;;6.249999;5.65;;;;;;;4.68;75.40527;93775.76;;;;
2019/04/07 04:38:32;;;;;;;6.249999;5.65;;;;;;;4.68;75.40527;93775.76;;;;
2019/04/07 04:39:34;;;;;;;6.249999;5.65;;;;;;;4.68;75.40527;93775.76;;;;
2019/04/07 04:40:35;;;;;;;6.249999;5.65;;;;;;;4.68;75.40527;93775.76;;;;
2019/04/07 04:41:36;;;;;;;6.249999;5.65;;;;;;;4.68;75.40527;93775.76;;;;
2019/04/07 04:42:37;;;;;;;6.249999;5.65;;;;;;;4.68;75.40527;93775.76;;;;
2019/04/07 04:43:38;;;;;;;6.249999;5.65;;;;;;;4.68;75.40527;93775.76;;;;
2019/04/07 04:44:39;;;;;;;7.15;6.4;;;;;;;4.26;75.25977;93790.28;;;;
2019/04/07 04:45:41;;;;;;;7.15;6.4;;;;;;;4.26;75.25977;93790.28;;;;
2019/04/07 04:46:42;;;;;;;7.15;6.4;;;;;;;4.26;75.25977;93790.28;;;;
2019/04/07 04:47:43;;;;;;;7.35;6.649999;;;;;;;4.31;76.01465;93799.84;;;;
2019/04/07 04:48:44;;;;;;;7.35;6.649999;;;;;;;4.31;76.01465;93799.84;;;;
2019/04/07 04:49:45;;;;;;;7.35;6.649999;;;;;;;4.31;76.01465;93799.84;;;;
2019/04/07 04:50:46;;;;;;;7.35;6.649999;;;;;;;4.31;76.01465;93799.84;;;;
2019/04/07 04:51:48;;;;;;;7.35;6.649999;;;;;;;4.31;76.01465;93799.84;;;;
2019/04/07 04:52:49;;;;;;;7.35;6.649999;;;;;;;4.31;76.01465;93799.84;;;;
2019/04/07 04:53:50;;;;;;;7.35;6.649999;;;;;;;4.31;76.01465;93799.84;;;;
2019/04/07 04:54:51;;;;;;;7.35;6.649999;;;;;;;4.31;76.01465;93799.84;;;;
2019/04/07 04:55:52;;;;;;;7.35;6.649999;;;;;;;4.31;76.01465;93799.84;;;;
2019/04/07 04:56:53;;;;;;;7.35;6.649999;;;;;;;4.31;76.01465;93799.84;;;;
2019/04/07 04:57:55;;;;;;;7.1;5.9;;;;;;;4.32;75.4375;93816.55;;;;
2019/04/07 04:58:56;;;;;;;7.1;5.9;;;;;;;4.32;75.4375;93816.55;;;;
2019/04/07 04:59:57;;;;;;;7.1;5.9;;;;;;;4.32;75.4375;93816.55;;;;
2019/04/07 05:00:58;;;;;;;6.400001;5.8;;;;;;;4.4;76.04297;93825.97;;;;
2019/04/07 05:01:59;;;;;;;6.400001;5.8;;;;;;;4.4;76.04297;93825.97;;;;
2019/04/07 05:03:00;;;;;;;6.400001;5.8;;;;;;;4.4;76.04297;93825.97;;;;
2019/04/07 05:04:02;;;;;;;6.400001;5.8;;;;;;;4.4;76.04297;93825.97;;;;
2019/04/07 05:05:03;;;;;;;6.400001;5.8;;;;;;;4.4;76.04297;93825.97;;;;
2019/04/07 05:06:04;;;;;;;6.400001;5.8;;;;;;;4.4;76.04297;93825.97;;;;
2019/04/07 05:07:05;;;;;;;6.400001;5.8;;;;;;;4.4;76.04297;93825.97;;;;
2019/04/07 05:08:07;;;;;;;6.400001;5.8;;;;;;;4.4;76.04297;93825.97;;;;
2019/04/07 05:09:08;;;;;;;6.400001;5.8;;;;;;;4.4;76.04297;93825.97;;;;
2019/04/07 05:10:09;;;;;;;6.400001;5.8;;;;;;;4.4;76.04297;93825.97;;;;
2019/04/07 05:11:10;;;;;;;8.2;6.85;;;;;;;4.53;75.18945;93837.77;;;;
2019/04/07 05:12:11;;;;;;;8.2;6.85;;;;;;;4.53;75.18945;93837.77;;;;
2019/04/07 05:13:13;;;;;;;8.2;6.85;;;;;;;4.53;75.18945;93837.77;;;;
2019/04/07 05:14:14;;;;;;;8.2;6.85;;;;;;;4.53;75.18945;93837.77;;;;
2019/04/07 05:15:15;;;;;;;8.2;6.85;;;;;;;4.53;75.18945;93837.77;;;;
2019/04/07 05:16:16;;;;;;;8.2;6.85;;;;;;;4.53;75.18945;93837.77;;;;
2019/04/07 05:17:17;;;;;;;8.2;6.85;;;;;;;4.53;75.18945;93837.77;;;;
2019/04/07 05:18:18;;;;;;;8.2;6.85;;;;;;;4.53;75.18945;93837.77;;;;
2019/04/07 05:19:20;;;;;;;8.2;6.85;;;;;;;4.53;75.18945;93837.77;;;;
2019/04/07 05:20:21;;;;;;;8.2;6.85;;;;;;;4.53;75.18945;93837.77;;;;
2019/04/07 05:21:22;;;;;;;8.2;6.85;;;;;;;4.53;75.18945;93837.77;;;;
2019/04/07 05:22:23;;;;;;;8.2;6.85;;;;;;;4.53;75.18945;93837.77;;;;
2019/04/07 05:23:24;;;;;;;8.2;6.85;;;;;;;4.53;75.18945;93837.77;;;;
2019/04/07 05:24:25;;;;;;;8.2;6.85;;;;;;;4.53;75.18945;93837.77;;;;
2019/04/07 05:25:27;;;;;;;8.2;6.85;;;;;;;4.53;75.18945;93837.77;;;;
2019/04/07 05:26:28;;;;;;;8.2;6.85;;;;;;;4.53;75.18945;93837.77;;;;
2019/04/07 05:27:29;;;;;;;8.2;6.85;;;;;;;4.53;75.18945;93837.77;;;;
2019/04/07 05:28:30;;;;;;;8.2;6.85;;;;;;;4.53;75.18945;93837.77;;;;
2019/04/07 05:29:31;;;;;;;8.2;6.85;;;;;;;4.53;75.18945;93837.77;;;;
2019/04/07 05:30:33;;;;;;;8.2;6.85;;;;;;;4.53;75.18945;93837.77;;;;
2019/04/07 05:31:34;;;;;;;8.2;6.85;;;;;;;4.53;75.18945;93837.77;;;;
2019/04/07 05:32:35;;;;;;;8.2;6.85;;;;;;;4.53;75.18945;93837.77;;;;
2019/04/07 05:33:36;;;;;;;8.2;6.85;;;;;;;4.53;75.18945;93837.77;;;;
2019/04/07 05:34:37;;;;;;;8.2;6.85;;;;;;;4.53;75.18945;93837.77;;;;
2019/04/07 05:35:38;;;;;;;8.2;6.85;;;;;;;4.53;75.18945;93837.77;;;;
2019/04/07 05:36:39;;;;;;;8.2;6.85;;;;;;;4.53;75.18945;93837.77;;;;
2019/04/07 05:37:41;;;;;;;8.2;6.85;;;;;;;4.53;75.18945;93837.77;;;;
2019/04/07 05:38:42;;;;;;;8.2;6.85;;;;;;;4.53;75.18945;93837.77;;;;
2019/04/07 05:39:43;;;;;;;8.2;6.85;;;;;;;4.53;75.18945;93837.77;;;;
2019/04/07 05:40:44;;;;;;;8.2;6.85;;;;;;;4.53;75.18945;93837.77;;;;
2019/04/07 05:41:45;;;;;;;8.2;6.85;;;;;;;4.53;75.18945;93837.77;;;;
2019/04/07 05:42:46;;;;;;;8.2;6.85;;;;;;;4.53;75.18945;93837.77;;;;
2019/04/07 05:43:48;;;;;;;8.2;6.85;;;;;;;4.53;75.18945;93837.77;;;;
2019/04/07 05:44:49;;;;;;;8.2;6.85;;;;;;;4.53;75.18945;93837.77;;;;
2019/04/07 05:45:50;;;;;;;8.2;6.85;;;;;;;4.53;75.18945;93837.77;;;;
2019/04/07 05:46:51;;;;;;;8.2;6.85;;;;;;;4.53;75.18945;93837.77;;;;
2019/04/07 05:47:52;;;;;;;8.2;6.85;;;;;;;4.53;75.18945;93837.77;;;;
2019/04/07 05:48:53;;;;;;;8.2;6.85;;;;;;;4.53;75.18945;93837.77;;;;
2019/04/07 05:49:55;;;;;;;8.2;6.85;;;;;;;4.53;75.18945;93837.77;;;;
2019/04/07 05:50:56;;;;;;;8.2;6.85;;;;;;;4.53;75.18945;93837.77;;;;
2019/04/07 05:51:57;;;;;;;8.2;6.85;;;;;;;4.53;75.18945;93837.77;;;;
2019/04/07 05:52:58;;;;;;;8.2;6.85;;;;;;;4.53;75.18945;93837.77;;;;
2019/04/07 05:53:59;;;;;;;8.2;6.85;;;;;;;4.53;75.18945;93837.77;;;;
2019/04/07 05:55:00;;;;;;;8.2;6.85;;;;;;;4.53;75.18945;93837.77;;;;
2019/04/07 06:07:02;;;;;;;9.150001;8.200001;;;;;;;6.31;73.90234;93851.81;;;;
2019/04/07 06:08:03;;;;;;;9.150001;8.200001;;;;;;;6.31;73.90234;93851.81;;;;
2019/04/07 06:09:05;;;;;;;9.150001;8.200001;;;;;;;6.31;73.90234;93851.81;;;;
2019/04/07 06:10:06;;;;;;;9.150001;8.200001;;;;;;;6.31;73.90234;93851.81;;;;
2019/04/07 06:11:07;;;;;;;9.150001;8.200001;;;;;;;6.31;73.90234;93851.81;;;;
2019/04/07 06:12:08;;;;;;;9.150001;8.200001;;;;;;;6.31;73.90234;93851.81;;;;
2019/04/07 06:13:09;;;;;;;9.150001;8.200001;;;;;;;6.31;73.90234;93851.81;;;;
2019/04/07 06:14:10;;;;;;;9.150001;8.200001;;;;;;;6.31;73.90234;93851.81;;;;
2019/04/07 06:15:12;;;;;;;9.150001;8.200001;;;;;;;6.31;73.90234;93851.81;;;;
2019/04/07 06:16:13;;;;;;;9.150001;8.200001;;;;;;;6.31;73.90234;93851.81;;;;
2019/04/07 06:17:14;;;;;;;9.150001;8.200001;;;;;;;6.31;73.90234;93851.81;;;;
2019/04/07 06:18:15;;;;;;;9.150001;8.200001;;;;;;;6.31;73.90234;93851.81;;;;
2019/04/07 06:19:16;;;;;;;9.150001;8.200001;;;;;;;6.31;73.90234;93851.81;;;;
2019/04/07 06:20:17;;;;;;;9.150001;8.200001;;;;;;;6.31;73.90234;93851.81;;;;
2019/04/07 06:21:19;;;;;;;9.150001;8.200001;;;;;;;6.31;73.90234;93851.81;;;;
2019/04/07 06:22:20;;;;;;;9.150001;8.200001;;;;;;;6.31;73.90234;93851.81;;;;
2019/04/07 06:23:21;;;;;;;9.150001;8.200001;;;;;;;6.31;73.90234;93851.81;;;;
2019/04/07 06:24:22;;;;;;;9.150001;8.200001;;;;;;;6.31;73.90234;93851.81;;;;
2019/04/07 06:25:23;;;;;;;9.150001;8.200001;;;;;;;6.31;73.90234;93851.81;;;;
2019/04/07 06:26:24;;;;;;;9.150001;8.200001;;;;;;;6.31;73.90234;93851.81;;;;
2019/04/07 06:27:26;;;;;;;9.150001;8.200001;;;;;;;6.31;73.90234;93851.81;;;;
2019/04/07 06:28:27;;;;;;;9.150001;8.200001;;;;;;;6.31;73.90234;93851.81;;;;
2019/04/07 06:29:28;;;;;;;9.150001;8.200001;;;;;;;6.31;73.90234;93851.81;;;;
2019/04/07 06:30:29;;;;;;;8.700001;7.950001;;;;;;;7.83;72.95996;93851.75;;;;
2019/04/07 06:31:30;;;;;;;8.700001;7.950001;;;;;;;7.83;72.95996;93851.75;;;;
2019/04/07 06:32:31;;;;;;;8.700001;7.950001;;;;;;;7.83;72.95996;93851.75;;;;
2019/04/07 06:33:33;;;;;;;8.450002;7.649999;;;;;;;8.13;72.62598;93856.58;;;;
2019/04/07 06:34:34;;;;;;;8.450002;7.649999;;;;;;;8.13;72.62598;93856.58;;;;
2019/04/07 06:35:35;;;;;;;8.450002;7.649999;;;;;;;8.13;72.62598;93856.58;;;;
2019/04/07 06:36:36;;;;;;;8.450002;7.649999;;;;;;;8.13;72.62598;93856.58;;;;
2019/04/07 06:37:37;;;;;;;8.450002;7.649999;;;;;;;8.13;72.62598;93856.58;;;;
2019/04/07 06:38:38;;;;;;;8.450002;7.649999;;;;;;;8.13;72.62598;93856.58;;;;
2019/04/07 06:39:40;;;;;;;8.450002;7.649999;;;;;;;8.13;72.62598;93856.58;;;;
2019/04/07 06:40:41;;;;;;;8.450002;7.649999;;;;;;;8.13;72.62598;93856.58;;;;
2019/04/07 06:41:42;;;;;;;8.450002;7.649999;;;;;;;8.13;72.62598;93856.58;;;;
2019/04/07 06:42:43;;;;;;;8.450002;7.649999;;;;;;;8.13;72.62598;93856.58;;;;
2019/04/07 06:43:44;;;;;;;8.450002;7.649999;;;;;;;8.13;72.62598;93856.58;;;;
2019/04/07 06:44:45;;;;;;;8.450002;7.649999;;;;;;;8.13;72.62598;93856.58;;;;
2019/04/07 06:45:53;;;;;;;8.450002;7.649999;;;;;;;8.13;72.62598;93856.58;;;;
2019/04/07 06:47:11;;;;;;;8.000001;7.299999;;;;;;;8.62;71.4707;93856.75;;;;
2019/04/07 06:48:12;;;;;;;8.000001;7.299999;;;;;;;8.62;71.4707;93856.75;;;;
2019/04/07 06:49:20;;;;;;;8.000001;7.299999;;;;;;;8.62;71.4707;93856.75;;;;
2019/04/07 06:51:00;;;;;;;8.000001;7.299999;;;;;;;8.62;71.4707;93856.75;;;;
2019/04/07 06:57:18;;;;;;;8.000001;7.299999;;;;;;;8.62;71.4707;93856.75;;;;
2019/04/07 06:58:28;;;;;;;8.000001;7.299999;;;;;;;8.62;71.4707;93856.75;;;;
2019/04/07 06:59:47;;;;;;;8.000001;7.299999;;;;;;;8.62;71.4707;93856.75;;;;
2019/04/07 07:02:00;;;;;;;8.2;7.400001;;;;;;;10.45;68.7832;93874.16;;;;
2019/04/07 07:03:13;;;;;;;8;7.149999;;;;;;;10.85;68.01074;93879.55;;;;
2019/04/07 07:13:52;;;;;;;8;7.149999;;;;;;;10.85;68.01074;93879.55;;;;
2019/04/07 07:15:12;;;;;;;7.9;7.199999;;;;;;;12.63;63.15527;93877.58;;;;